createdAt,value
2022-08-26T00:07:47.916Z,18.53
2022-08-26T00:17:56.863Z,18.62
2022-08-26T00:28:04.444Z,18.58
2022-08-26T00:38:09.924Z,18.54
2022-08-26T00:48:21.119Z,18.33
2022-08-26T00:58:30.964Z,18.15
2022-08-26T01:08:37.340Z,18.01
2022-08-26T01:18:47.031Z,18.06
2022-08-26T01:28:58.613Z,17.97
2022-08-26T01:39:07.325Z,17.90
2022-08-26T01:49:16.028Z,17.80
2022-08-26T01:59:24.914Z,17.51
2022-08-26T02:09:32.719Z,17.40
2022-08-26T02:19:46.636Z,17.44
2022-08-26T02:29:58.154Z,17.49
2022-08-26T02:40:08.391Z,17.44
2022-08-26T02:50:16.280Z,17.30
2022-08-26T03:00:23.005Z,17.26
2022-08-26T03:10:32.400Z,17.14
2022-08-26T03:20:40.149Z,16.90
2022-08-26T03:30:49.348Z,16.80
2022-08-26T03:51:03.285Z,16.70
2022-08-26T04:01:12.163Z,16.68
2022-08-26T04:11:21.622Z,16.87
2022-08-26T04:21:30.100Z,17.04
2022-08-26T04:31:36.913Z,17.20
2022-08-26T04:41:44.522Z,17.27
2022-08-26T04:51:52.914Z,17.25
2022-08-26T05:02:01.811Z,17.65
2022-08-26T05:12:06.714Z,18.93
2022-08-26T05:22:14.012Z,20.30
2022-08-26T05:32:22.714Z,21.38
2022-08-26T05:42:30.057Z,22.47
2022-08-26T05:52:37.937Z,23.25
2022-08-26T06:02:45.316Z,23.66
2022-08-26T06:12:55.875Z,23.95
2022-08-26T06:23:21.466Z,24.11
2022-08-26T06:33:29.090Z,24.34
2022-08-26T06:43:36.275Z,24.73
2022-08-26T06:53:47.121Z,25.47
2022-08-26T07:03:57.436Z,25.58
2022-08-26T07:14:05.236Z,25.79
2022-08-26T07:24:13.152Z,25.52
2022-08-26T07:34:20.547Z,25.77
2022-08-26T07:44:28.589Z,26.16
2022-08-26T07:54:36.748Z,26.01
2022-08-26T08:04:44.153Z,26.42
2022-08-26T08:14:52.524Z,26.96
2022-08-26T08:24:58.683Z,27.03
2022-08-26T08:35:11.609Z,27.39
2022-08-26T08:45:17.019Z,27.45
2022-08-26T08:55:27.372Z,27.75
2022-08-26T09:05:40.196Z,27.90
2022-08-26T09:15:49.471Z,27.84
2022-08-26T09:25:56.852Z,27.93
2022-08-26T09:36:26.365Z,27.99
2022-08-26T09:46:34.863Z,28.21
2022-08-26T09:56:41.437Z,28.31
2022-08-26T10:07:03.161Z,28.18
2022-08-26T10:17:15.643Z,28.30
2022-08-26T10:27:20.919Z,28.30
2022-08-26T10:37:37.619Z,28.50
2022-08-26T10:47:51.290Z,28.70
2022-08-26T10:57:56.923Z,28.68
2022-08-26T11:08:34.697Z,28.89
2022-08-26T11:18:46.272Z,29.00
2022-08-26T11:28:53.600Z,29.03
2022-08-26T11:39:04.068Z,29.00
2022-08-26T11:49:15.300Z,29.06
2022-08-26T11:59:38.935Z,29.45
2022-08-26T12:09:52.599Z,29.59
2022-08-26T12:20:00.478Z,29.60
2022-08-26T12:30:13.887Z,29.68
2022-08-26T12:40:35.976Z,29.70
2022-08-26T12:50:50.511Z,29.62
2022-08-26T13:00:57.277Z,29.66
2022-08-26T13:11:06.210Z,29.62
2022-08-26T13:21:19.049Z,29.59
2022-08-26T13:31:28.407Z,29.52
2022-08-26T13:41:36.419Z,29.43
2022-08-26T13:51:43.925Z,29.38
2022-08-26T14:22:05.275Z,29.21
2022-08-26T14:32:23.105Z,29.20
2022-08-26T14:42:32.739Z,29.21
2022-08-26T14:52:54.597Z,29.22
2022-08-26T15:03:02.668Z,29.15
2022-08-26T15:13:10.124Z,29.14
2022-08-26T15:23:17.643Z,29.05
2022-08-26T15:33:25.487Z,28.97
2022-08-26T15:43:30.226Z,28.89
2022-08-26T15:53:38.418Z,28.72
2022-08-26T16:03:46.613Z,28.57
2022-08-26T16:13:55.357Z,28.43
2022-08-26T16:24:03.470Z,28.23
2022-08-26T16:34:11.792Z,27.99
2022-08-26T16:54:24.996Z,27.42
2022-08-26T17:04:33.525Z,27.10
2022-08-26T17:14:41.597Z,26.65
2022-08-26T17:24:49.538Z,26.08
2022-08-26T17:34:56.956Z,25.42
2022-08-26T17:45:03.592Z,24.71
2022-08-26T17:55:15.110Z,24.11
2022-08-26T18:05:23.293Z,23.74
2022-08-26T18:15:28.961Z,23.56
2022-08-26T18:25:35.527Z,23.33
2022-08-26T18:35:42.504Z,23.14
2022-08-26T18:45:50.417Z,22.83
2022-08-26T18:55:57.884Z,22.45
2022-08-26T19:06:06.368Z,22.09
2022-08-26T19:26:24.115Z,21.63
2022-08-26T19:36:31.645Z,21.48
2022-08-26T19:56:49.611Z,21.29
2022-08-26T20:06:58.732Z,21.17
2022-08-26T20:17:08.958Z,21.11
2022-08-26T20:27:15.609Z,20.89
2022-08-26T20:37:24.644Z,20.61
2022-08-26T20:47:31.863Z,20.31
2022-08-26T20:57:39.428Z,20.08
2022-08-26T21:07:47.239Z,20.06
2022-08-26T21:17:55.221Z,20.03
2022-08-26T21:28:02.971Z,19.79
2022-08-26T21:48:15.761Z,19.28
2022-08-26T21:58:23.016Z,19.21
2022-08-26T22:08:30.159Z,19.15
2022-08-26T22:18:38.617Z,19.07
2022-08-26T22:28:46.393Z,18.91
2022-08-26T22:38:54.638Z,18.68
2022-08-26T22:49:01.855Z,18.39
2022-08-26T22:59:11.870Z,18.30
2022-08-26T23:09:20.471Z,18.21
2022-08-26T23:19:29.238Z,18.14
2022-08-26T23:39:42.447Z,18.18
2022-08-26T23:49:49.655Z,18.05
2022-08-26T23:59:58.124Z,17.98
